sensor_id;sensor_type;location;lat;lon;timestamp;pressure;altitude;pressure_sealevel;temperature;humidity
67013;BME280;53926;47.406;19.188;2023-02-11T00:01:32;102393.63;;;-7.51;100.00
67013;BME280;53926;47.406;19.188;2023-02-11T00:03:59;102389.13;;;-7.74;100.00
67013;BME280;53926;47.406;19.188;2023-02-11T00:06:28;102385.72;;;-7.71;100.00
67013;BME280;53926;47.406;19.188;2023-02-11T00:08:56;102385.59;;;-7.67;100.00
67013;BME280;53926;47.406;19.188;2023-02-11T00:11:23;102385.75;;;-7.73;100.00
67013;BME280;53926;47.406;19.188;2023-02-11T00:13:59;102382.78;;;-7.91;100.00
67013;BME280;53926;47.406;19.188;2023-02-11T00:16:31;102381.16;;;-7.95;100.00
67013;BME280;53926;47.406;19.188;2023-02-11T00:19:02;102372.47;;;-7.83;100.00
67013;BME280;53926;47.406;19.188;2023-02-11T00:21:31;102372.44;;;-7.81;100.00
67013;BME280;53926;47.406;19.188;2023-02-11T00:24:00;102374.66;;;-7.69;100.00
67013;BME280;53926;47.406;19.188;2023-02-11T00:26:32;102369.09;;;-7.82;100.00
67013;BME280;53926;47.406;19.188;2023-02-11T00:29:00;102380.66;;;-7.71;100.00
67013;BME280;53926;47.406;19.188;2023-02-11T00:31:27;102375.63;;;-7.73;100.00
67013;BME280;53926;47.406;19.188;2023-02-11T00:33:54;102376.75;;;-7.85;100.00
67013;BME280;53926;47.406;19.188;2023-02-11T00:36:24;102372.25;;;-8.10;100.00
67013;BME280;53926;47.406;19.188;2023-02-11T00:38:52;102371.38;;;-8.09;100.00
67013;BME280;53926;47.406;19.188;2023-02-11T00:41:19;102372.34;;;-7.78;100.00
67013;BME280;53926;47.406;19.188;2023-02-11T00:43:47;102368.34;;;-7.85;100.00
67013;BME280;53926;47.406;19.188;2023-02-11T00:46:21;102356.94;;;-8.03;100.00
67013;BME280;53926;47.406;19.188;2023-02-11T00:48:48;102358.97;;;-7.82;100.00
67013;BME280;53926;47.406;19.188;2023-02-11T00:51:17;102355.91;;;-7.96;100.00
67013;BME280;53926;47.406;19.188;2023-02-11T00:53:43;102352.66;;;-8.00;100.00
67013;BME280;53926;47.406;19.188;2023-02-11T00:56:12;102356.31;;;-7.77;100.00
67013;BME280;53926;47.406;19.188;2023-02-11T00:58:41;102358.81;;;-8.12;100.00
67013;BME280;53926;47.406;19.188;2023-02-11T01:01:10;102364.94;;;-8.20;100.00
67013;BME280;53926;47.406;19.188;2023-02-11T01:03:38;102349.75;;;-8.20;100.00
67013;BME280;53926;47.406;19.188;2023-02-11T01:06:06;102352.91;;;-8.11;100.00
67013;BME280;53926;47.406;19.188;2023-02-11T01:08:33;102347.88;;;-8.12;100.00
67013;BME280;53926;47.406;19.188;2023-02-11T01:11:03;102340.88;;;-8.38;100.00
67013;BME280;53926;47.406;19.188;2023-02-11T01:13:34;102343.28;;;-8.32;100.00
67013;BME280;53926;47.406;19.188;2023-02-11T01:16:08;102334.00;;;-8.32;100.00
67013;BME280;53926;47.406;19.188;2023-02-11T01:18:38;102321.34;;;-8.32;100.00
67013;BME280;53926;47.406;19.188;2023-02-11T01:21:05;102320.19;;;-8.17;100.00
67013;BME280;53926;47.406;19.188;2023-02-11T01:23:33;102326.75;;;-8.10;100.00
67013;BME280;53926;47.406;19.188;2023-02-11T01:26:02;102316.12;;;-8.24;100.00
67013;BME280;53926;47.406;19.188;2023-02-11T01:28:29;102315.28;;;-8.23;100.00
67013;BME280;53926;47.406;19.188;2023-02-11T01:30:56;102314.97;;;-8.11;100.00
67013;BME280;53926;47.406;19.188;2023-02-11T01:33:25;102305.44;;;-8.35;100.00
67013;BME280;53926;47.406;19.188;2023-02-11T01:35:52;102313.84;;;-8.35;100.00
67013;BME280;53926;47.406;19.188;2023-02-11T01:38:24;102309.09;;;-8.47;100.00
67013;BME280;53926;47.406;19.188;2023-02-11T01:40:57;102302.34;;;-8.45;100.00
67013;BME280;53926;47.406;19.188;2023-02-11T01:43:29;102304.97;;;-8.50;100.00
67013;BME280;53926;47.406;19.188;2023-02-11T01:46:17;102301.72;;;-8.56;100.00
67013;BME280;53926;47.406;19.188;2023-02-11T01:49:00;102312.75;;;-8.59;100.00
67013;BME280;53926;47.406;19.188;2023-02-11T01:51:48;102315.03;;;-8.48;100.00
67013;BME280;53926;47.406;19.188;2023-02-11T01:54:19;102307.25;;;-8.40;100.00
67013;BME280;53926;47.406;19.188;2023-02-11T01:57:06;102303.00;;;-8.38;100.00
67013;BME280;53926;47.406;19.188;2023-02-11T02:00:11;102306.38;;;-8.39;100.00
67013;BME280;53926;47.406;19.188;2023-02-11T02:02:47;102299.34;;;-8.27;100.00
67013;BME280;53926;47.406;19.188;2023-02-11T02:05:27;102292.19;;;-8.43;100.00
67013;BME280;53926;47.406;19.188;2023-02-11T02:10:46;102303.56;;;-8.27;100.00
67013;BME280;53926;47.406;19.188;2023-02-11T02:13:13;102294.44;;;-8.33;100.00
67013;BME280;53926;47.406;19.188;2023-02-11T02:15:47;102295.84;;;-8.57;100.00
67013;BME280;53926;47.406;19.188;2023-02-11T02:30:08;102282.97;;;-8.46;100.00
67013;BME280;53926;47.406;19.188;2023-02-11T02:33:13;102287.87;;;-8.40;100.00
67013;BME280;53926;47.406;19.188;2023-02-11T02:36:08;102289.81;;;-8.50;100.00
67013;BME280;53926;47.406;19.188;2023-02-11T02:38:45;102293.44;;;-8.61;100.00
67013;BME280;53926;47.406;19.188;2023-02-11T02:41:16;102293.97;;;-8.49;100.00
67013;BME280;53926;47.406;19.188;2023-02-11T02:43:47;102296.59;;;-8.53;100.00
67013;BME280;53926;47.406;19.188;2023-02-11T02:46:21;102289.03;;;-8.53;100.00
67013;BME280;53926;47.406;19.188;2023-02-11T02:48:49;102279.03;;;-8.58;100.00
67013;BME280;53926;47.406;19.188;2023-02-11T02:57:00;102280.28;;;-8.40;100.00
67013;BME280;53926;47.406;19.188;2023-02-11T02:59:33;102282.41;;;-8.23;100.00
67013;BME280;53926;47.406;19.188;2023-02-11T03:02:26;102285.00;;;-7.90;100.00
67013;BME280;53926;47.406;19.188;2023-02-11T03:05:08;102282.50;;;-7.93;100.00
67013;BME280;53926;47.406;19.188;2023-02-11T03:08:15;102280.19;;;-8.01;100.00
67013;BME280;53926;47.406;19.188;2023-02-11T03:10:49;102274.00;;;-7.89;100.00
67013;BME280;53926;47.406;19.188;2023-02-11T03:13:18;102271.00;;;-8.03;100.00
67013;BME280;53926;47.406;19.188;2023-02-11T03:15:49;102271.88;;;-8.06;100.00
67013;BME280;53926;47.406;19.188;2023-02-11T03:18:20;102278.50;;;-8.36;100.00
67013;BME280;53926;47.406;19.188;2023-02-11T03:20:49;102273.53;;;-8.39;100.00
67013;BME280;53926;47.406;19.188;2023-02-11T03:23:29;102268.31;;;-8.33;100.00
67013;BME280;53926;47.406;19.188;2023-02-11T03:26:03;102274.50;;;-8.43;100.00
67013;BME280;53926;47.406;19.188;2023-02-11T03:28:38;102266.66;;;-8.33;100.00
67013;BME280;53926;47.406;19.188;2023-02-11T03:34:18;102262.44;;;-8.34;100.00
67013;BME280;53926;47.406;19.188;2023-02-11T03:37:17;102267.22;;;-8.21;100.00
67013;BME280;53926;47.406;19.188;2023-02-11T03:39:50;102256.25;;;-8.20;100.00
67013;BME280;53926;47.406;19.188;2023-02-11T03:42:18;102255.31;;;-8.18;100.00
67013;BME280;53926;47.406;19.188;2023-02-11T03:44:50;102252.97;;;-8.26;100.00
67013;BME280;53926;47.406;19.188;2023-02-11T03:47:21;102251.53;;;-8.34;100.00
67013;BME280;53926;47.406;19.188;2023-02-11T03:49:52;102234.53;;;-8.29;100.00
67013;BME280;53926;47.406;19.188;2023-02-11T03:52:21;102236.78;;;-8.51;100.00
67013;BME280;53926;47.406;19.188;2023-02-11T03:54:54;102228.50;;;-8.58;100.00
67013;BME280;53926;47.406;19.188;2023-02-11T03:57:21;102222.25;;;-8.77;100.00
67013;BME280;53926;47.406;19.188;2023-02-11T03:59:57;102223.06;;;-8.77;100.00
67013;BME280;53926;47.406;19.188;2023-02-11T04:02:30;102211.44;;;-8.84;100.00
67013;BME280;53926;47.406;19.188;2023-02-11T04:04:57;102206.47;;;-8.87;100.00
67013;BME280;53926;47.406;19.188;2023-02-11T04:07:24;102199.78;;;-8.88;100.00
67013;BME280;53926;47.406;19.188;2023-02-11T04:09:52;102202.53;;;-8.99;100.00
67013;BME280;53926;47.406;19.188;2023-02-11T04:12:19;102205.16;;;-9.04;100.00
67013;BME280;53926;47.406;19.188;2023-02-11T04:14:45;102200.88;;;-9.00;100.00
67013;BME280;53926;47.406;19.188;2023-02-11T04:17:14;102205.41;;;-8.77;100.00
67013;BME280;53926;47.406;19.188;2023-02-11T04:19:41;102202.78;;;-8.74;100.00
67013;BME280;53926;47.406;19.188;2023-02-11T04:22:08;102194.34;;;-8.71;100.00
67013;BME280;53926;47.406;19.188;2023-02-11T04:24:37;102198.66;;;-8.78;100.00
67013;BME280;53926;47.406;19.188;2023-02-11T04:27:03;102195.53;;;-8.88;100.00
67013;BME280;53926;47.406;19.188;2023-02-11T04:29:30;102188.88;;;-8.92;100.00
67013;BME280;53926;47.406;19.188;2023-02-11T04:32:02;102178.87;;;-8.59;100.00
67013;BME280;53926;47.406;19.188;2023-02-11T04:34:29;102183.56;;;-8.79;100.00
67013;BME280;53926;47.406;19.188;2023-02-11T04:36:56;102179.00;;;-9.01;100.00
67013;BME280;53926;47.406;19.188;2023-02-11T04:39:22;102176.50;;;-9.03;100.00
67013;BME280;53926;47.406;19.188;2023-02-11T04:41:49;102176.53;;;-9.04;100.00
67013;BME280;53926;47.406;19.188;2023-02-11T04:44:15;102176.75;;;-9.13;100.00
67013;BME280;53926;47.406;19.188;2023-02-11T04:46:42;102174.69;;;-8.96;100.00
67013;BME280;53926;47.406;19.188;2023-02-11T04:49:15;102178.28;;;-9.06;100.00
67013;BME280;53926;47.406;19.188;2023-02-11T04:51:42;102173.66;;;-9.26;100.00
67013;BME280;53926;47.406;19.188;2023-02-11T04:54:14;102172.59;;;-9.14;100.00
67013;BME280;53926;47.406;19.188;2023-02-11T04:56:41;102175.31;;;-9.24;100.00
67013;BME280;53926;47.406;19.188;2023-02-11T04:59:08;102170.28;;;-9.25;100.00
67013;BME280;53926;47.406;19.188;2023-02-11T05:01:34;102169.31;;;-9.20;100.00
67013;BME280;53926;47.406;19.188;2023-02-11T05:04:01;102175.31;;;-9.24;100.00
67013;BME280;53926;47.406;19.188;2023-02-11T05:06:28;102181.53;;;-9.01;100.00
67013;BME280;53926;47.406;19.188;2023-02-11T05:08:54;102177.00;;;-9.26;100.00
67013;BME280;53926;47.406;19.188;2023-02-11T05:11:22;102184.22;;;-9.09;100.00
67013;BME280;53926;47.406;19.188;2023-02-11T05:13:49;102186.06;;;-9.15;100.00
67013;BME280;53926;47.406;19.188;2023-02-11T05:16:16;102185.47;;;-9.27;100.00
67013;BME280;53926;47.406;19.188;2023-02-11T05:18:43;102178.97;;;-9.39;100.00
67013;BME280;53926;47.406;19.188;2023-02-11T05:21:16;102188.91;;;-9.31;100.00
67013;BME280;53926;47.406;19.188;2023-02-11T05:23:44;102180.62;;;-9.36;100.00
67013;BME280;53926;47.406;19.188;2023-02-11T05:26:13;102190.50;;;-9.27;100.00
67013;BME280;53926;47.406;19.188;2023-02-11T05:28:40;102189.25;;;-9.09;100.00
67013;BME280;53926;47.406;19.188;2023-02-11T05:31:07;102195.41;;;-9.19;100.00
67013;BME280;53926;47.406;19.188;2023-02-11T05:33:34;102185.31;;;-9.19;100.00
67013;BME280;53926;47.406;19.188;2023-02-11T05:36:07;102183.03;;;-9.31;100.00
67013;BME280;53926;47.406;19.188;2023-02-11T05:38:34;102190.75;;;-9.38;100.00
67013;BME280;53926;47.406;19.188;2023-02-11T05:41:02;102185.81;;;-9.05;100.00
67013;BME280;53926;47.406;19.188;2023-02-11T05:43:30;102185.13;;;-9.11;100.00
67013;BME280;53926;47.406;19.188;2023-02-11T05:45:57;102182.87;;;-8.86;100.00
67013;BME280;53926;47.406;19.188;2023-02-11T05:48:24;102178.06;;;-8.97;100.00
67013;BME280;53926;47.406;19.188;2023-02-11T05:50:51;102170.56;;;-8.64;100.00
67013;BME280;53926;47.406;19.188;2023-02-11T05:53:17;102172.53;;;-8.75;100.00
67013;BME280;53926;47.406;19.188;2023-02-11T05:55:44;102171.38;;;-8.62;100.00
67013;BME280;53926;47.406;19.188;2023-02-11T05:58:11;102168.41;;;-8.79;100.00
67013;BME280;53926;47.406;19.188;2023-02-11T06:00:39;102168.41;;;-8.79;100.00
67013;BME280;53926;47.406;19.188;2023-02-11T06:03:05;102173.72;;;-8.90;100.00
67013;BME280;53926;47.406;19.188;2023-02-11T06:05:32;102171.38;;;-9.00;100.00
67013;BME280;53926;47.406;19.188;2023-02-11T06:08:01;102172.81;;;-8.88;100.00
67013;BME280;53926;47.406;19.188;2023-02-11T06:10:30;102185.31;;;-8.82;100.00
67013;BME280;53926;47.406;19.188;2023-02-11T06:12:57;102185.09;;;-8.72;100.00
67013;BME280;53926;47.406;19.188;2023-02-11T06:15:24;102185.00;;;-8.69;100.00
67013;BME280;53926;47.406;19.188;2023-02-11T06:17:51;102183.84;;;-8.56;100.00
67013;BME280;53926;47.406;19.188;2023-02-11T06:20:18;102184.81;;;-8.29;100.00
67013;BME280;53926;47.406;19.188;2023-02-11T06:22:47;102185.78;;;-8.33;100.00
67013;BME280;53926;47.406;19.188;2023-02-11T06:25:13;102182.94;;;-8.20;100.00
67013;BME280;53926;47.406;19.188;2023-02-11T06:27:42;102182.56;;;-8.05;100.00
67013;BME280;53926;47.406;19.188;2023-02-11T06:30:09;102186.25;;;-7.85;100.00
67013;BME280;53926;47.406;19.188;2023-02-11T06:32:36;102165.97;;;-7.54;100.00
67013;BME280;53926;47.406;19.188;2023-02-11T06:35:13;102166.56;;;-7.16;100.00
67013;BME280;53926;47.406;19.188;2023-02-11T06:37:40;102168.53;;;-6.97;100.00
67013;BME280;53926;47.406;19.188;2023-02-11T06:40:08;102164.53;;;-6.78;100.00
67013;BME280;53926;47.406;19.188;2023-02-11T06:42:35;102156.13;;;-6.53;100.00
67013;BME280;53926;47.406;19.188;2023-02-11T06:45:04;102150.28;;;-6.30;100.00
67013;BME280;53926;47.406;19.188;2023-02-11T06:47:31;102154.12;;;-6.18;100.00
67013;BME280;53926;47.406;19.188;2023-02-11T06:49:58;102156.13;;;-6.03;100.00
67013;BME280;53926;47.406;19.188;2023-02-11T06:52:25;102157.94;;;-5.83;100.00
67013;BME280;53926;47.406;19.188;2023-02-11T06:54:51;102163.09;;;-5.62;100.00
67013;BME280;53926;47.406;19.188;2023-02-11T06:57:18;102155.31;;;-5.58;100.00
67013;BME280;53926;47.406;19.188;2023-02-11T06:59:45;102155.19;;;-5.31;100.00
67013;BME280;53926;47.406;19.188;2023-02-11T07:02:12;102157.72;;;-5.09;100.00
67013;BME280;53926;47.406;19.188;2023-02-11T07:04:39;102155.59;;;-4.97;100.00
67013;BME280;53926;47.406;19.188;2023-02-11T07:07:06;102142.00;;;-4.96;100.00
67013;BME280;53926;47.406;19.188;2023-02-11T07:09:33;102139.03;;;-4.86;100.00
67013;BME280;53926;47.406;19.188;2023-02-11T07:11:59;102146.22;;;-4.75;100.00
67013;BME280;53926;47.406;19.188;2023-02-11T07:14:26;102136.13;;;-4.56;100.00
67013;BME280;53926;47.406;19.188;2023-02-11T07:16:52;102144.63;;;-4.77;100.00
67013;BME280;53926;47.406;19.188;2023-02-11T07:19:19;102143.50;;;-4.50;100.00
67013;BME280;53926;47.406;19.188;2023-02-11T07:21:46;102142.81;;;-4.33;100.00
67013;BME280;53926;47.406;19.188;2023-02-11T07:24:14;102140.69;;;-4.23;100.00
67013;BME280;53926;47.406;19.188;2023-02-11T07:26:40;102140.16;;;-4.10;100.00
67013;BME280;53926;47.406;19.188;2023-02-11T07:29:07;102139.28;;;-4.09;100.00
67013;BME280;53926;47.406;19.188;2023-02-11T07:31:33;102141.94;;;-4.12;100.00
67013;BME280;53926;47.406;19.188;2023-02-11T07:34:01;102147.81;;;-3.91;100.00
67013;BME280;53926;47.406;19.188;2023-02-11T07:36:29;102153.88;;;-3.75;100.00
67013;BME280;53926;47.406;19.188;2023-02-11T07:38:57;102142.03;;;-3.38;100.00
67013;BME280;53926;47.406;19.188;2023-02-11T07:41:24;102150.41;;;-3.17;100.00
67013;BME280;53926;47.406;19.188;2023-02-11T07:43:52;102138.59;;;-2.83;100.00
67013;BME280;53926;47.406;19.188;2023-02-11T07:46:23;102135.34;;;-2.34;100.00
67013;BME280;53926;47.406;19.188;2023-02-11T07:48:51;102140.53;;;-2.36;100.00
67013;BME280;53926;47.406;19.188;2023-02-11T07:51:26;102140.09;;;-1.94;100.00
67013;BME280;53926;47.406;19.188;2023-02-11T07:53:54;102139.56;;;-1.52;100.00
67013;BME280;53926;47.406;19.188;2023-02-11T07:56:22;102129.22;;;-1.34;100.00
67013;BME280;53926;47.406;19.188;2023-02-11T07:58:49;102130.50;;;-1.11;100.00
67013;BME280;53926;47.406;19.188;2023-02-11T08:01:21;102128.06;;;-0.82;100.00
67013;BME280;53926;47.406;19.188;2023-02-11T08:03:51;102122.59;;;-0.76;100.00
67013;BME280;53926;47.406;19.188;2023-02-11T08:06:19;102121.59;;;-1.04;100.00
67013;BME280;53926;47.406;19.188;2023-02-11T08:08:46;102129.91;;;-0.70;100.00
67013;BME280;53926;47.406;19.188;2023-02-11T08:11:25;102116.94;;;-0.67;100.00
67013;BME280;53926;47.406;19.188;2023-02-11T08:13:53;102116.62;;;-0.32;100.00
67013;BME280;53926;47.406;19.188;2023-02-11T08:16:32;102118.53;;;-0.21;100.00
67013;BME280;53926;47.406;19.188;2023-02-11T08:19:02;102112.22;;;-0.30;100.00
67013;BME280;53926;47.406;19.188;2023-02-11T08:21:29;102120.16;;;-0.20;100.00
67013;BME280;53926;47.406;19.188;2023-02-11T08:23:56;102119.69;;;-0.12;100.00
67013;BME280;53926;47.406;19.188;2023-02-11T08:26:29;102119.47;;;0.34;100.00
67013;BME280;53926;47.406;19.188;2023-02-11T08:28:57;102127.63;;;0.53;100.00
67013;BME280;53926;47.406;19.188;2023-02-11T08:31:29;102122.59;;;1.06;100.00
67013;BME280;53926;47.406;19.188;2023-02-11T08:33:56;102128.31;;;0.97;100.00
67013;BME280;53926;47.406;19.188;2023-02-11T08:36:25;102116.94;;;1.40;100.00
67013;BME280;53926;47.406;19.188;2023-02-11T08:38:55;102114.72;;;1.48;100.00
67013;BME280;53926;47.406;19.188;2023-02-11T08:41:43;102109.44;;;1.11;100.00
67013;BME280;53926;47.406;19.188;2023-02-11T08:44:10;102108.84;;;1.59;100.00
67013;BME280;53926;47.406;19.188;2023-02-11T08:46:37;102116.22;;;1.51;100.00
67013;BME280;53926;47.406;19.188;2023-02-11T08:49:03;102115.94;;;1.68;100.00
67013;BME280;53926;47.406;19.188;2023-02-11T08:51:32;102103.41;;;1.64;100.00
67013;BME280;53926;47.406;19.188;2023-02-11T08:53:59;102114.38;;;1.66;100.00
67013;BME280;53926;47.406;19.188;2023-02-11T08:56:26;102112.09;;;1.74;100.00
67013;BME280;53926;47.406;19.188;2023-02-11T08:58:53;102106.59;;;1.29;100.00
67013;BME280;53926;47.406;19.188;2023-02-11T09:01:25;102104.50;;;1.85;100.00
67013;BME280;53926;47.406;19.188;2023-02-11T09:03:52;102109.44;;;1.88;100.00
67013;BME280;53926;47.406;19.188;2023-02-11T09:06:20;102107.75;;;2.00;100.00
67013;BME280;53926;47.406;19.188;2023-02-11T09:08:49;102110.59;;;2.45;100.00
67013;BME280;53926;47.406;19.188;2023-02-11T09:11:18;102110.44;;;2.60;100.00
67013;BME280;53926;47.406;19.188;2023-02-11T09:13:46;102109.00;;;2.80;99.85
67013;BME280;53926;47.406;19.188;2023-02-11T09:16:34;102105.41;;;2.94;93.98
67013;BME280;53926;47.406;19.188;2023-02-11T09:19:02;102100.59;;;3.47;94.52
67013;BME280;53926;47.406;19.188;2023-02-11T09:21:29;102098.16;;;3.68;89.69
67013;BME280;53926;47.406;19.188;2023-02-11T09:23:56;102096.03;;;3.39;88.96
67013;BME280;53926;47.406;19.188;2023-02-11T09:26:25;102092.72;;;4.05;86.09
67013;BME280;53926;47.406;19.188;2023-02-11T09:28:52;102080.63;;;4.50;81.50
67013;BME280;53926;47.406;19.188;2023-02-11T09:31:21;102090.44;;;4.35;81.55
67013;BME280;53926;47.406;19.188;2023-02-11T09:33:51;102079.41;;;5.28;84.03
67013;BME280;53926;47.406;19.188;2023-02-11T09:36:24;102080.66;;;6.15;69.24
67013;BME280;53926;47.406;19.188;2023-02-11T09:38:52;102083.63;;;7.46;64.07
67013;BME280;53926;47.406;19.188;2023-02-11T09:43:52;102067.47;;;8.08;55.90
67013;BME280;53926;47.406;19.188;2023-02-11T09:46:20;102066.03;;;10.13;53.52
67013;BME280;53926;47.406;19.188;2023-02-11T09:48:48;102061.84;;;10.45;47.98
67013;BME280;53926;47.406;19.188;2023-02-11T09:51:20;102060.66;;;10.97;45.34
67013;BME280;53926;47.406;19.188;2023-02-11T09:53:55;102049.66;;;11.97;40.33
67013;BME280;53926;47.406;19.188;2023-02-11T09:56:27;102059.53;;;11.48;39.11
67013;BME280;53926;47.406;19.188;2023-02-11T09:58:53;102053.25;;;10.61;40.82
67013;BME280;53926;47.406;19.188;2023-02-11T10:01:38;102057.44;;;10.62;41.52
67013;BME280;53926;47.406;19.188;2023-02-11T10:07:24;102048.97;;;12.80;38.20
67013;BME280;53926;47.406;19.188;2023-02-11T10:24:00;102045.75;;;7.81;44.49
67013;BME280;53926;47.406;19.188;2023-02-11T10:26:30;102035.09;;;7.38;47.38
67013;BME280;53926;47.406;19.188;2023-02-11T10:29:00;102031.62;;;7.10;48.32
67013;BME280;53926;47.406;19.188;2023-02-11T10:31:39;102028.06;;;7.48;48.06
67013;BME280;53926;47.406;19.188;2023-02-11T10:34:12;102025.47;;;7.21;48.00
67013;BME280;53926;47.406;19.188;2023-02-11T10:36:41;102027.28;;;6.14;51.49
67013;BME280;53926;47.406;19.188;2023-02-11T10:39:14;102017.38;;;7.33;49.22
67013;BME280;53926;47.406;19.188;2023-02-11T10:41:51;102017.81;;;6.82;50.15
67013;BME280;53926;47.406;19.188;2023-02-11T10:44:26;102015.16;;;7.66;47.22
67013;BME280;53926;47.406;19.188;2023-02-11T10:46:55;102016.78;;;7.85;47.43
67013;BME280;53926;47.406;19.188;2023-02-11T10:49:43;102010.69;;;8.22;46.44
67013;BME280;53926;47.406;19.188;2023-02-11T10:52:24;102001.47;;;8.72;46.39
67013;BME280;53926;47.406;19.188;2023-02-11T10:54:56;102003.81;;;9.61;42.77
67013;BME280;53926;47.406;19.188;2023-02-11T10:57:36;101985.81;;;9.17;43.35
67013;BME280;53926;47.406;19.188;2023-02-11T11:00:18;101975.00;;;8.95;43.07
67013;BME280;53926;47.406;19.188;2023-02-11T11:02:53;101980.06;;;9.47;42.30
67013;BME280;53926;47.406;19.188;2023-02-11T11:05:27;101971.41;;;7.81;47.19
67013;BME280;53926;47.406;19.188;2023-02-11T11:08:01;101979.81;;;7.65;47.94
67013;BME280;53926;47.406;19.188;2023-02-11T11:10:42;101971.09;;;9.34;44.12
67013;BME280;53926;47.406;19.188;2023-02-11T11:13:30;101959.59;;;9.02;45.78
67013;BME280;53926;47.406;19.188;2023-02-11T11:18:32;101963.16;;;10.75;39.92
67013;BME280;53926;47.406;19.188;2023-02-11T11:21:02;101958.28;;;11.12;38.04
67013;BME280;53926;47.406;19.188;2023-02-11T11:23:31;101949.84;;;9.71;39.86
67013;BME280;53926;47.406;19.188;2023-02-11T11:26:04;101952.22;;;9.31;40.37
67013;BME280;53926;47.406;19.188;2023-02-11T11:28:36;101950.69;;;9.80;40.56
67013;BME280;53926;47.406;19.188;2023-02-11T11:31:11;101945.00;;;10.90;39.09
67013;BME280;53926;47.406;19.188;2023-02-11T11:33:41;101938.31;;;11.81;36.03
67013;BME280;53926;47.406;19.188;2023-02-11T11:36:16;101935.88;;;10.13;38.77
67013;BME280;53926;47.406;19.188;2023-02-11T11:38:52;101925.63;;;9.54;40.05
67013;BME280;53926;47.406;19.188;2023-02-11T11:41:23;101921.09;;;8.97;40.94
67013;BME280;53926;47.406;19.188;2023-02-11T11:46:38;101917.75;;;8.26;43.78
67013;BME280;53926;47.406;19.188;2023-02-11T11:49:27;101909.44;;;9.18;41.88
67013;BME280;53926;47.406;19.188;2023-02-11T11:52:19;101898.59;;;9.30;40.54
67013;BME280;53926;47.406;19.188;2023-02-11T11:57:44;101893.41;;;8.45;42.30
67013;BME280;53926;47.406;19.188;2023-02-11T12:00:18;101885.97;;;8.24;42.93
67013;BME280;53926;47.406;19.188;2023-02-11T12:03:08;101883.56;;;8.04;44.14
67013;BME280;53926;47.406;19.188;2023-02-11T12:11:22;101877.69;;;9.81;39.79
67013;BME280;53926;47.406;19.188;2023-02-11T12:16:35;101868.25;;;10.69;38.92
67013;BME280;53926;47.406;19.188;2023-02-11T12:19:31;101857.16;;;11.91;37.63
67013;BME280;53926;47.406;19.188;2023-02-11T12:22:10;101859.19;;;10.88;39.90
67013;BME280;53926;47.406;19.188;2023-02-11T12:28:02;101833.97;;;11.58;38.14
67013;BME280;53926;47.406;19.188;2023-02-11T12:34:06;101826.91;;;9.11;44.46
67013;BME280;53926;47.406;19.188;2023-02-11T12:39:36;101819.03;;;8.70;46.09
67013;BME280;53926;47.406;19.188;2023-02-11T12:45:16;101796.03;;;8.41;46.42
67013;BME280;53926;47.406;19.188;2023-02-11T12:50:41;101794.25;;;8.92;45.50
67013;BME280;53926;47.406;19.188;2023-02-11T12:53:46;101796.25;;;8.56;45.78
67013;BME280;53926;47.406;19.188;2023-02-11T12:56:18;101783.41;;;9.13;43.67
67013;BME280;53926;47.406;19.188;2023-02-11T12:58:47;101786.81;;;9.14;42.76
67013;BME280;53926;47.406;19.188;2023-02-11T13:01:26;101778.53;;;9.60;42.26
67013;BME280;53926;47.406;19.188;2023-02-11T13:04:01;101783.00;;;8.75;44.36
67013;BME280;53926;47.406;19.188;2023-02-11T13:06:44;101782.41;;;9.72;41.49
67013;BME280;53926;47.406;19.188;2023-02-11T13:09:17;101786.00;;;9.22;42.94
67013;BME280;53926;47.406;19.188;2023-02-11T13:11:50;101780.94;;;10.42;40.57
67013;BME280;53926;47.406;19.188;2023-02-11T13:14:29;101766.53;;;10.63;41.23
67013;BME280;53926;47.406;19.188;2023-02-11T13:17:03;101771.34;;;10.34;40.29
67013;BME280;53926;47.406;19.188;2023-02-11T13:19:43;101771.63;;;9.92;41.69
67013;BME280;53926;47.406;19.188;2023-02-11T13:22:35;101765.19;;;9.63;42.27
67013;BME280;53926;47.406;19.188;2023-02-11T13:25:33;101767.06;;;10.02;41.77
67013;BME280;53926;47.406;19.188;2023-02-11T13:30:43;101754.50;;;9.41;43.17
67013;BME280;53926;47.406;19.188;2023-02-11T13:33:20;101744.25;;;9.23;43.54
67013;BME280;53926;47.406;19.188;2023-02-11T13:38:29;101732.06;;;9.40;43.52
67013;BME280;53926;47.406;19.188;2023-02-11T13:43:33;101720.31;;;9.69;42.07
67013;BME280;53926;47.406;19.188;2023-02-11T13:46:04;101723.94;;;9.02;42.33
67013;BME280;53926;47.406;19.188;2023-02-11T13:48:35;101721.84;;;9.30;41.70
67013;BME280;53926;47.406;19.188;2023-02-11T13:51:04;101720.50;;;8.85;43.00
67013;BME280;53926;47.406;19.188;2023-02-11T13:56:38;101724.91;;;8.76;43.34
67013;BME280;53926;47.406;19.188;2023-02-11T14:11:02;101737.25;;;6.83;48.84
67013;BME280;53926;47.406;19.188;2023-02-11T14:16:14;101740.16;;;6.70;48.98
67013;BME280;53926;47.406;19.188;2023-02-11T14:26:53;101716.03;;;6.51;50.24
67013;BME280;53926;47.406;19.188;2023-02-11T14:35:31;101706.69;;;6.13;53.84
67013;BME280;53926;47.406;19.188;2023-02-11T14:38:26;101721.37;;;6.22;52.69
67013;BME280;53926;47.406;19.188;2023-02-11T14:41:17;101734.22;;;6.41;52.26
67013;BME280;53926;47.406;19.188;2023-02-11T14:43:47;101735.63;;;6.54;52.34
67013;BME280;53926;47.406;19.188;2023-02-11T14:46:17;101728.19;;;6.69;51.65
67013;BME280;53926;47.406;19.188;2023-02-11T14:48:51;101723.22;;;6.57;52.26
67013;BME280;53926;47.406;19.188;2023-02-11T14:53:51;101736.69;;;6.79;49.90
67013;BME280;53926;47.406;19.188;2023-02-11T14:56:24;101732.91;;;6.55;49.27